EST,Max TemperatureF,Mean TemperatureF,Min TemperatureF,Max Dew PointF,MeanDew PointF,Min DewpointF,Max Humidity, Mean Humidity, Min Humidity, Max Sea Level PressureIn, Mean Sea Level PressureIn, Min Sea Level PressureIn, Max VisibilityMiles, Mean VisibilityMiles, Min VisibilityMiles, Max Wind SpeedMPH, Mean Wind SpeedMPH, Max Gust SpeedMPH,PrecipitationIn, CloudCover, Events, WindDirDegrees
2013-1-1,41,35,28,28,24,14,70,62,53,30.01,29.92,29.85,10,10,10,14,8,22,0.00,4,,322
2013-1-2,33,28,23,15,14,12,60,52,43,30.18,30.07,29.99,10,10,10,15,6,22,0.00,0,,334
2013-1-3,33,28,23,18,15,14,68,59,49,30.19,30.14,30.09,10,10,9,13,4,18,0.00,1,,302
2013-1-4,37,32,27,21,20,18,69,59,48,30.11,30.05,29.99,10,10,9,20,9,28,0.00,3,,277
2013-1-5,42,36,29,23,20,18,72,59,45,30.32,30.22,30.05,10,10,7,15,6,20,0.00,0,,303
2013-1-6,47,39,31,32,28,24,89,66,42,30.21,30.09,29.98,10,6,1,13,5,17,0.01,6,Snow,264
2013-1-7,46,38,30,29,25,23,75,60,40,30.39,30.28,30.07,10,10,8,14,4,18,0.00,2,,319
2013-1-8,49,37,25,32,27,22,85,68,50,30.41,30.37,30.34,10,8,5,14,3,17,0.00,0,,253
2013-1-9,50,39,27,38,32,25,92,77,61,30.37,30.28,30.16,10,8,4,16,5,23,0.00,3,,271
2013-1-10,50,42,34,29,25,24,59,49,39,30.52,30.46,30.29,10,10,10,15,7,23,0.00,0,,342
2013-1-11,47,40,32,45,37,25,100,80,59,30.50,30.27,30.07,10,7,2,13,4,17,0.61,6,Rain,95
2013-1-12,47,45,43,45,43,42,100,93,86,30.16,30.12,30.06,9,3,0,7,3,9,0.00,8,Fog,344
2013-1-13,49,46,43,48,45,41,100,96,92,30.13,30.06,29.99,3,1,0,7,3,9,0.03,8,Fog,172
2013-1-14,56,48,39,51,45,33,100,77,54,30.27,30.09,29.92,10,6,0,13,5,17,0.11,8,Fog-Rain,351
2013-1-15,39,37,35,35,30,28,92,81,70,30.32,30.26,30.18,10,10,6,12,5,14,0.14,8,Rain,29
2013-1-16,37,35,33,34,33,30,100,91,82,30.16,29.98,29.83,7,4,2,16,5,22,0.73,7,Rain,347
2013-1-17,43,40,36,34,29,25,85,69,53,30.08,30.02,29.93,10,9,6,14,6,21,0.00,3,,330
2013-1-18,36,31,25,25,13,5,69,51,32,30.48,30.33,30.03,10,10,10,24,7,33,T,2,,348
2013-1-19,50,38,26,28,24,13,75,57,39,30.39,30.18,29.93,10,10,10,21,11,28,0.00,0,,226
2013-1-20,54,42,30,29,22,11,70,46,22,30.04,29.84,29.73,10,10,10,24,13,37,0.00,0,,285
2013-1-21,32,28,23,25,14,9,68,55,42,30.08,29.96,29.85,10,8,0,16,5,23,0.01,5,Snow,311
2013-1-22,25,19,13,9,-2,-7,50,42,34,30.24,30.07,29.86,10,10,10,24,13,32,0.00,1,,314
2013-1-23,19,15,10,6,-1,-6,76,59,42,30.27,30.22,30.18,10,10,9,16,6,23,0.00,2,,312
2013-1-24,25,18,10,8,2,-5,84,56,27,30.43,30.26,30.12,10,10,9,24,9,35,0.00,3,,351
2013-1-25,22,16,10,16,7,-3,92,67,41,30.44,30.24,30.06,10,6,1,18,5,24,0.06,4,Snow,266
2013-1-26,28,19,9,12,8,5,92,67,42,30.39,30.18,30.05,10,9,7,17,6,23,0.00,3,,337
2013-1-27,34,24,13,14,10,5,73,57,41,30.53,30.48,30.40,10,10,9,16,4,22,0.00,0,,322
2013-1-28,35,28,21,34,28,15,100,84,68,30.48,30.21,30.01,8,3,1,14,4,16,0.13,7,Rain-Snow,234
2013-1-29,49,41,33,43,38,33,100,88,76,30.14,30.07,30.01,10,4,1,9,3,13,0.00,8,,185
2013-1-30,67,54,41,57,51,41,100,84,68,30.04,29.69,29.33,10,5,0,28,8,41,0.14,8,Fog-Rain,214
2013-1-31,62,46,29,58,36,10,90,63,36,29.83,29.38,29.08,10,8,2,38,17,53,0.85,6,Rain,275